createdAt,value
2022-10-09T00:01:30.581Z,11.10
2022-10-09T00:03:59.364Z,11.10
2022-10-09T00:06:33.119Z,11.08
2022-10-09T00:09:02.740Z,11.06
2022-10-09T00:11:32.745Z,11.03
2022-10-09T00:14:01.276Z,10.98
2022-10-09T00:16:29.521Z,10.94
2022-10-09T00:18:58.508Z,10.89
2022-10-09T00:21:30.324Z,10.84
2022-10-09T00:24:01.415Z,10.79
2022-10-09T00:26:29.601Z,10.72
2022-10-09T00:28:58.418Z,10.68
2022-10-09T00:31:26.513Z,10.64
2022-10-09T00:33:54.328Z,10.62
2022-10-09T00:36:24.929Z,10.59
2022-10-09T00:38:54.650Z,10.55
2022-10-09T00:41:31.171Z,10.51
2022-10-09T00:44:02.338Z,10.49
2022-10-09T00:46:48.290Z,10.48
2022-10-09T00:49:34.002Z,10.46
2022-10-09T00:52:05.077Z,10.45
2022-10-09T00:54:37.606Z,10.44
2022-10-09T00:57:05.685Z,10.43
2022-10-09T00:59:34.049Z,10.42
2022-10-09T01:02:02.134Z,10.41
2022-10-09T01:04:29.957Z,10.38
2022-10-09T01:07:34.153Z,10.35
2022-10-09T01:10:26.472Z,10.31
2022-10-09T01:13:15.605Z,10.29
2022-10-09T01:16:02.610Z,10.28
2022-10-09T01:18:47.091Z,10.27
2022-10-09T01:21:33.657Z,10.26
2022-10-09T01:24:22.055Z,10.27
2022-10-09T01:27:12.431Z,10.27
2022-10-09T01:29:50.338Z,10.27
2022-10-09T01:32:23.357Z,10.26
2022-10-09T01:34:52.839Z,10.25
2022-10-09T01:37:23.493Z,10.24
2022-10-09T01:39:52.540Z,10.24
2022-10-09T01:42:22.976Z,10.25
2022-10-09T01:44:51.023Z,10.26
2022-10-09T01:47:21.022Z,10.30
2022-10-09T01:49:48.723Z,10.31
2022-10-09T01:52:19.838Z,10.33
2022-10-09T01:55:17.005Z,10.33
2022-10-09T01:57:54.675Z,10.36
2022-10-09T02:00:23.283Z,10.37
2022-10-09T02:02:53.941Z,10.39
2022-10-09T02:05:25.878Z,10.38
2022-10-09T02:07:55.569Z,10.39
2022-10-09T02:10:25.015Z,10.40
2022-10-09T02:13:02.020Z,10.40
2022-10-09T02:15:41.189Z,10.42
2022-10-09T02:18:13.391Z,10.43
2022-10-09T02:20:48.214Z,10.43
2022-10-09T02:23:18.527Z,10.44
2022-10-09T02:25:46.776Z,10.44
2022-10-09T02:28:15.070Z,10.41
2022-10-09T02:31:13.769Z,10.37
2022-10-09T02:33:41.761Z,10.32
2022-10-09T02:36:09.995Z,10.29
2022-10-09T02:38:37.794Z,10.26
2022-10-09T02:41:05.773Z,10.20
2022-10-09T02:43:33.507Z,10.14
2022-10-09T02:46:01.492Z,10.07
2022-10-09T02:48:29.454Z,10.00
2022-10-09T02:50:57.390Z,9.93
2022-10-09T02:53:25.332Z,9.89
2022-10-09T02:55:53.120Z,9.88
2022-10-09T02:58:20.832Z,9.87
2022-10-09T03:00:53.455Z,9.86
2022-10-09T03:03:21.532Z,9.87
2022-10-09T03:06:07.328Z,9.86
2022-10-09T03:08:36.268Z,9.87
2022-10-09T03:11:04.332Z,9.87
2022-10-09T03:13:32.826Z,9.88
2022-10-09T03:16:05.220Z,9.88
2022-10-09T03:18:33.236Z,9.88
2022-10-09T03:21:01.303Z,9.88
2022-10-09T03:23:29.206Z,9.88
2022-10-09T03:25:58.417Z,9.86
2022-10-09T03:28:27.233Z,9.84
2022-10-09T03:30:55.944Z,9.82
2022-10-09T03:33:23.849Z,9.82
2022-10-09T03:35:51.630Z,9.82
2022-10-09T03:38:19.608Z,9.84
2022-10-09T03:40:47.441Z,9.87
2022-10-09T03:43:15.306Z,9.90
2022-10-09T03:45:43.747Z,9.91
2022-10-09T03:48:12.514Z,9.94
2022-10-09T03:50:41.823Z,9.97
2022-10-09T03:53:11.550Z,9.97
2022-10-09T03:55:40.546Z,9.99
2022-10-09T03:58:08.593Z,9.99
2022-10-09T04:00:37.125Z,10.00
2022-10-09T04:03:07.656Z,10.02
2022-10-09T04:05:36.064Z,10.02
2022-10-09T04:08:03.912Z,10.03
2022-10-09T04:10:31.848Z,10.05
2022-10-09T04:12:59.745Z,10.07
2022-10-09T04:15:27.524Z,10.08
2022-10-09T04:17:55.349Z,10.09
2022-10-09T04:20:23.397Z,10.10
2022-10-09T04:22:51.406Z,10.11
2022-10-09T04:25:19.479Z,10.11
2022-10-09T04:27:47.368Z,10.09
2022-10-09T04:30:15.289Z,10.08
2022-10-09T04:32:43.120Z,10.07
2022-10-09T04:35:11.579Z,10.08
2022-10-09T04:37:40.177Z,10.10
2022-10-09T04:40:08.720Z,10.12
2022-10-09T04:42:36.641Z,10.14
2022-10-09T04:45:05.010Z,10.16
2022-10-09T04:47:34.306Z,10.15
2022-10-09T04:50:03.086Z,10.10
2022-10-09T04:52:31.029Z,10.02
2022-10-09T04:54:58.923Z,9.92
2022-10-09T04:57:26.838Z,9.84
2022-10-09T04:59:54.683Z,9.79
2022-10-09T05:02:22.571Z,9.77
2022-10-09T05:04:51.168Z,9.76
2022-10-09T05:07:18.983Z,9.76
2022-10-09T05:09:46.854Z,9.74
2022-10-09T05:12:15.439Z,9.77
2022-10-09T05:14:43.361Z,9.83
2022-10-09T05:17:15.067Z,9.90
2022-10-09T05:19:43.231Z,10.00
2022-10-09T05:22:12.044Z,10.10
2022-10-09T05:24:39.909Z,10.20
2022-10-09T05:27:07.716Z,10.32
2022-10-09T05:29:41.152Z,10.42
2022-10-09T05:32:09.058Z,10.53
2022-10-09T05:34:36.959Z,10.62
2022-10-09T05:37:04.772Z,10.72
2022-10-09T05:39:32.702Z,10.81
2022-10-09T05:42:00.525Z,10.91
2022-10-09T05:44:28.484Z,10.98
2022-10-09T05:46:56.411Z,11.06
2022-10-09T05:49:24.263Z,11.12
2022-10-09T05:51:52.270Z,11.18
2022-10-09T05:54:20.244Z,11.23
2022-10-09T05:56:48.267Z,11.26
2022-10-09T05:59:21.313Z,11.30
2022-10-09T06:01:51.570Z,11.31
2022-10-09T06:04:22.950Z,11.34
2022-10-09T06:06:51.875Z,11.37
2022-10-09T06:09:23.679Z,11.40
2022-10-09T06:11:55.294Z,11.43
2022-10-09T06:14:24.624Z,11.44
2022-10-09T06:16:52.639Z,11.45
2022-10-09T06:19:21.171Z,11.48
2022-10-09T06:21:49.323Z,11.52
2022-10-09T06:24:27.312Z,11.55
2022-10-09T06:26:57.763Z,11.59
2022-10-09T06:29:26.128Z,11.61
2022-10-09T06:31:54.147Z,11.63
2022-10-09T06:34:22.821Z,11.64
2022-10-09T06:36:50.597Z,11.66
2022-10-09T06:39:18.663Z,11.68
2022-10-09T06:41:46.709Z,11.71
2022-10-09T06:44:17.231Z,11.75
2022-10-09T06:46:48.825Z,11.81
2022-10-09T06:49:16.837Z,11.86
2022-10-09T06:51:44.733Z,11.92
2022-10-09T06:54:17.624Z,11.99
2022-10-09T06:56:45.628Z,12.11
2022-10-09T06:59:13.449Z,12.23
2022-10-09T07:01:41.437Z,12.38
2022-10-09T07:04:14.444Z,12.53
2022-10-09T07:06:45.254Z,12.68
2022-10-09T07:09:14.883Z,12.82
2022-10-09T07:11:49.267Z,12.98
2022-10-09T07:14:17.863Z,13.11
2022-10-09T07:16:49.092Z,13.25
2022-10-09T07:19:18.070Z,13.39
2022-10-09T07:21:48.091Z,13.51
2022-10-09T07:24:20.858Z,13.62
2022-10-09T07:26:49.261Z,13.75
2022-10-09T07:29:19.066Z,13.87
2022-10-09T07:31:47.541Z,14.00
2022-10-09T07:34:16.873Z,14.13
2022-10-09T07:36:44.863Z,14.25
2022-10-09T07:39:13.807Z,14.34
2022-10-09T07:41:41.679Z,14.43
2022-10-09T07:44:10.329Z,14.51
2022-10-09T07:46:38.346Z,14.61
2022-10-09T07:49:06.474Z,14.74
2022-10-09T07:51:34.373Z,14.87
2022-10-09T07:54:02.556Z,15.00
2022-10-09T07:56:33.284Z,15.13
2022-10-09T07:59:04.737Z,15.21
2022-10-09T08:01:35.087Z,15.31
2022-10-09T08:04:06.709Z,15.38
2022-10-09T08:06:37.264Z,15.45
2022-10-09T08:09:07.047Z,15.52
2022-10-09T08:11:45.932Z,15.64
2022-10-09T08:14:19.184Z,15.76
2022-10-09T08:16:50.288Z,15.85
2022-10-09T08:19:18.303Z,15.91
2022-10-09T08:21:46.556Z,15.93
2022-10-09T08:24:14.521Z,15.93
2022-10-09T08:26:44.256Z,15.93
2022-10-09T08:29:14.091Z,15.95
2022-10-09T08:31:48.037Z,16.02
2022-10-09T08:34:15.899Z,16.10
2022-10-09T08:36:44.571Z,16.15
2022-10-09T08:39:15.688Z,16.19
2022-10-09T08:42:03.394Z,16.19
2022-10-09T08:44:40.053Z,16.18
2022-10-09T08:47:11.038Z,16.20
2022-10-09T08:49:43.200Z,16.23
2022-10-09T08:52:29.296Z,16.28
2022-10-09T08:55:03.867Z,16.36
2022-10-09T08:57:34.575Z,16.47
2022-10-09T09:00:02.796Z,16.54
2022-10-09T09:02:49.757Z,16.61
2022-10-09T09:05:36.869Z,16.73
2022-10-09T09:08:17.153Z,16.87
2022-10-09T09:11:03.826Z,17.01
2022-10-09T09:13:39.549Z,17.10
2022-10-09T09:16:31.595Z,17.15
2022-10-09T09:19:21.300Z,17.22
2022-10-09T09:21:51.557Z,17.29
2022-10-09T09:24:19.633Z,17.35
2022-10-09T09:26:53.753Z,17.39
2022-10-09T09:29:26.951Z,17.40
2022-10-09T09:32:01.229Z,17.39
2022-10-09T09:34:41.407Z,17.40
2022-10-09T09:37:21.064Z,17.39
2022-10-09T09:42:37.173Z,17.43
2022-10-09T09:45:13.237Z,17.42
2022-10-09T09:47:47.298Z,17.34
2022-10-09T09:50:42.412Z,17.34
2022-10-09T09:53:27.975Z,17.39
2022-10-09T09:55:56.623Z,17.50
2022-10-09T09:58:53.323Z,17.57
2022-10-09T10:01:30.850Z,17.56
2022-10-09T10:04:02.528Z,17.58
2022-10-09T10:06:44.147Z,17.60
2022-10-09T10:09:20.679Z,17.58
2022-10-09T10:11:55.173Z,17.53
2022-10-09T10:14:23.783Z,17.47
2022-10-09T10:16:54.318Z,17.43
2022-10-09T10:19:27.437Z,17.45
2022-10-09T10:22:06.700Z,17.49
2022-10-09T10:24:42.797Z,17.56
2022-10-09T10:27:30.202Z,17.67
2022-10-09T10:30:04.334Z,17.80
2022-10-09T10:33:02.375Z,17.88
2022-10-09T10:35:36.165Z,17.93
2022-10-09T10:38:13.113Z,17.93
2022-10-09T10:40:54.148Z,17.92
2022-10-09T10:43:46.172Z,17.97
2022-10-09T10:46:29.517Z,18.00
2022-10-09T10:49:02.252Z,17.96
2022-10-09T10:51:56.510Z,17.95
2022-10-09T10:54:46.791Z,18.02
2022-10-09T10:57:26.947Z,18.12
2022-10-09T11:00:11.173Z,18.26
2022-10-09T11:03:08.844Z,18.35
2022-10-09T11:05:41.840Z,18.42
2022-10-09T11:08:34.685Z,18.48
2022-10-09T11:11:12.100Z,18.56
2022-10-09T11:13:53.901Z,18.62
2022-10-09T11:16:36.918Z,18.67
2022-10-09T11:19:23.788Z,18.69
2022-10-09T11:22:19.158Z,18.66
2022-10-09T11:24:59.605Z,18.60
2022-10-09T11:28:04.835Z,18.52
2022-10-09T11:30:48.657Z,18.43
2022-10-09T11:33:50.260Z,18.33
2022-10-09T11:36:41.961Z,18.22
2022-10-09T11:39:20.482Z,18.11
2022-10-09T11:41:51.253Z,18.04
2022-10-09T11:44:39.143Z,17.96
2022-10-09T11:47:34.978Z,17.92
2022-10-09T11:50:28.651Z,17.89
2022-10-09T11:53:06.849Z,17.89
2022-10-09T11:55:35.361Z,17.91
2022-10-09T11:58:25.241Z,17.95
2022-10-09T12:00:56.724Z,18.03
2022-10-09T12:03:34.735Z,18.10
2022-10-09T12:06:16.808Z,18.17
2022-10-09T12:08:59.138Z,18.25
2022-10-09T12:11:28.617Z,18.31
2022-10-09T12:14:00.051Z,18.37
2022-10-09T12:16:45.858Z,18.42
2022-10-09T12:19:28.056Z,18.50
2022-10-09T12:21:58.609Z,18.57
2022-10-09T12:24:32.183Z,18.58
2022-10-09T12:27:03.332Z,18.57
2022-10-09T12:29:43.570Z,18.57
2022-10-09T12:32:23.391Z,18.61
2022-10-09T12:34:51.464Z,18.66
2022-10-09T12:37:22.697Z,18.72
2022-10-09T12:39:50.533Z,18.77
2022-10-09T12:42:24.438Z,18.81
2022-10-09T12:44:55.580Z,18.87
2022-10-09T12:47:29.363Z,18.92
2022-10-09T12:50:18.533Z,18.95
2022-10-09T12:52:54.075Z,18.94
2022-10-09T12:55:33.946Z,18.89
2022-10-09T12:58:29.434Z,18.84
2022-10-09T13:01:01.178Z,18.76
2022-10-09T13:03:54.537Z,18.66
2022-10-09T13:06:28.485Z,18.57
2022-10-09T13:09:02.576Z,18.49
2022-10-09T13:11:33.710Z,18.44
2022-10-09T13:14:02.040Z,18.41
2022-10-09T13:16:43.927Z,18.38
2022-10-09T13:19:40.735Z,18.37
2022-10-09T13:22:19.027Z,18.36
2022-10-09T13:24:57.422Z,18.31
2022-10-09T13:27:32.984Z,18.23
2022-10-09T13:30:01.728Z,18.11
2022-10-09T13:32:29.670Z,18.01
2022-10-09T13:34:58.288Z,17.95
2022-10-09T13:37:27.278Z,17.94
2022-10-09T13:39:57.473Z,17.95
2022-10-09T13:42:30.077Z,17.99
2022-10-09T13:44:58.592Z,18.02
2022-10-09T13:47:26.514Z,18.03
2022-10-09T13:49:55.039Z,18.00
2022-10-09T13:52:22.880Z,17.99
2022-10-09T13:54:50.746Z,18.00
2022-10-09T13:57:18.878Z,18.05
2022-10-09T13:59:46.952Z,18.08
2022-10-09T14:02:14.929Z,18.09
2022-10-09T14:04:42.901Z,18.07
2022-10-09T14:07:10.758Z,18.05
2022-10-09T14:09:38.771Z,18.03
2022-10-09T14:12:06.603Z,17.98
2022-10-09T14:14:34.580Z,17.94
2022-10-09T14:17:02.541Z,17.90
2022-10-09T14:19:30.367Z,17.83
2022-10-09T14:21:58.759Z,17.76
2022-10-09T14:24:27.667Z,17.72
2022-10-09T14:26:57.734Z,17.69
2022-10-09T14:29:25.661Z,17.65
2022-10-09T14:31:53.602Z,17.59
2022-10-09T14:34:22.145Z,17.54
2022-10-09T14:36:50.431Z,17.47
2022-10-09T14:39:18.258Z,17.42
2022-10-09T14:41:46.271Z,17.36
2022-10-09T14:44:14.194Z,17.31
2022-10-09T14:46:42.027Z,17.25
2022-10-09T14:49:11.153Z,17.18
2022-10-09T14:51:40.633Z,17.13
2022-10-09T14:54:10.736Z,17.07
2022-10-09T14:56:38.791Z,17.01
2022-10-09T14:59:06.934Z,16.96
2022-10-09T15:01:35.777Z,16.91
2022-10-09T15:04:07.372Z,16.89
2022-10-09T15:06:35.579Z,16.86
2022-10-09T15:09:06.072Z,16.84
2022-10-09T15:11:35.515Z,16.79
2022-10-09T15:14:04.521Z,16.74
2022-10-09T15:16:32.475Z,16.67
2022-10-09T15:19:00.421Z,16.59
2022-10-09T15:21:33.947Z,16.50
2022-10-09T15:24:03.517Z,16.45
2022-10-09T15:26:33.687Z,16.41
2022-10-09T15:29:05.056Z,16.36
2022-10-09T15:31:34.288Z,16.32
2022-10-09T15:34:03.402Z,16.28
2022-10-09T15:36:34.956Z,16.24
2022-10-09T15:39:06.130Z,16.19
2022-10-09T15:41:37.229Z,16.16
2022-10-09T15:44:16.611Z,16.11
2022-10-09T15:46:46.150Z,16.04
2022-10-09T15:49:14.479Z,15.98
2022-10-09T15:51:42.602Z,15.93
2022-10-09T15:54:12.055Z,15.87
2022-10-09T15:56:41.445Z,15.81
2022-10-09T15:59:13.711Z,15.77
2022-10-09T16:01:41.642Z,15.73
2022-10-09T16:04:10.096Z,15.70
2022-10-09T16:06:38.043Z,15.64
2022-10-09T16:09:06.200Z,15.58
2022-10-09T16:11:34.793Z,15.53
2022-10-09T16:14:02.691Z,15.48
2022-10-09T16:16:30.757Z,15.45
2022-10-09T16:19:00.205Z,15.42
2022-10-09T16:21:29.310Z,15.38
2022-10-09T16:23:59.519Z,15.33
2022-10-09T16:26:29.336Z,15.30
2022-10-09T16:28:59.179Z,15.26
2022-10-09T16:31:34.967Z,15.21
2022-10-09T16:34:05.121Z,15.16
2022-10-09T16:36:33.779Z,15.11
2022-10-09T16:39:01.679Z,15.07
2022-10-09T16:41:29.646Z,15.04
2022-10-09T16:43:59.933Z,15.01
2022-10-09T16:46:30.573Z,14.99
2022-10-09T16:48:59.891Z,14.95
2022-10-09T16:51:30.961Z,14.92
2022-10-09T16:54:00.466Z,14.90
2022-10-09T16:56:32.933Z,14.91
2022-10-09T16:59:04.278Z,14.91
2022-10-09T17:01:32.890Z,14.92
2022-10-09T17:04:01.188Z,14.93
2022-10-09T17:06:31.571Z,14.93
2022-10-09T17:08:59.848Z,14.93
2022-10-09T17:11:29.957Z,14.93
2022-10-09T17:13:58.141Z,14.93
2022-10-09T17:16:29.360Z,14.91
2022-10-09T17:18:58.124Z,14.88
2022-10-09T17:21:29.741Z,14.84
2022-10-09T17:24:03.802Z,14.81
2022-10-09T17:26:32.061Z,14.78
2022-10-09T17:29:01.068Z,14.75
2022-10-09T17:31:29.945Z,14.73
2022-10-09T17:34:00.323Z,14.71
2022-10-09T17:36:30.906Z,14.67
2022-10-09T17:38:59.071Z,14.63
2022-10-09T17:41:29.264Z,14.60
2022-10-09T17:43:58.464Z,14.55
2022-10-09T17:46:28.165Z,14.50
2022-10-09T17:48:58.494Z,14.47
2022-10-09T17:51:32.558Z,14.43
2022-10-09T17:54:04.917Z,14.40
2022-10-09T17:56:34.997Z,14.38
2022-10-09T17:59:03.999Z,14.35
2022-10-09T18:01:32.094Z,14.30
2022-10-09T18:04:00.176Z,14.27
2022-10-09T18:06:31.820Z,14.25
2022-10-09T18:09:00.192Z,14.21
2022-10-09T18:11:28.655Z,14.18
2022-10-09T18:13:56.665Z,14.14
2022-10-09T18:16:35.683Z,14.09
2022-10-09T18:19:14.884Z,14.07
2022-10-09T18:21:48.520Z,14.05
2022-10-09T18:24:17.489Z,14.03
2022-10-09T18:26:45.474Z,14.00
2022-10-09T18:29:14.064Z,13.97
2022-10-09T18:31:41.940Z,13.95
2022-10-09T18:34:10.628Z,13.92
2022-10-09T18:36:39.462Z,13.88
2022-10-09T18:39:09.966Z,13.86
2022-10-09T18:41:38.178Z,13.84
2022-10-09T18:44:12.642Z,13.81
2022-10-09T18:46:45.489Z,13.79
2022-10-09T18:49:16.036Z,13.78
2022-10-09T18:51:45.579Z,13.76
2022-10-09T18:54:17.913Z,13.74
2022-10-09T18:56:46.939Z,13.71
2022-10-09T18:59:18.544Z,13.67
2022-10-09T19:01:47.145Z,13.64
2022-10-09T19:04:15.543Z,13.60
2022-10-09T19:06:43.559Z,13.56
2022-10-09T19:09:11.413Z,13.54
2022-10-09T19:11:39.422Z,13.52
2022-10-09T19:14:07.319Z,13.48
2022-10-09T19:16:35.753Z,13.45
2022-10-09T19:19:04.090Z,13.41
2022-10-09T19:21:32.052Z,13.36
2022-10-09T19:24:03.828Z,13.32
2022-10-09T19:26:33.250Z,13.27
2022-10-09T19:29:01.806Z,13.22
2022-10-09T19:31:29.814Z,13.16
2022-10-09T19:34:00.186Z,13.10
2022-10-09T19:36:28.568Z,13.04
2022-10-09T19:38:56.858Z,12.99
2022-10-09T19:41:24.720Z,12.95
2022-10-09T19:43:53.080Z,12.90
2022-10-09T19:46:22.753Z,12.83
2022-10-09T19:48:51.524Z,12.76
2022-10-09T19:51:25.065Z,12.70
2022-10-09T19:53:53.936Z,12.68
2022-10-09T19:56:26.261Z,12.65
2022-10-09T19:58:55.485Z,12.62
2022-10-09T20:01:25.923Z,12.61
2022-10-09T20:04:02.742Z,12.61
2022-10-09T20:06:30.699Z,12.61
2022-10-09T20:08:58.833Z,12.60
2022-10-09T20:11:26.923Z,12.57
2022-10-09T20:13:56.602Z,12.54
2022-10-09T20:16:25.734Z,12.51
2022-10-09T20:18:55.457Z,12.49
2022-10-09T20:21:23.262Z,12.47
2022-10-09T20:23:51.938Z,12.44
2022-10-09T20:26:21.592Z,12.40
2022-10-09T20:28:50.540Z,12.37
2022-10-09T20:31:21.113Z,12.34
2022-10-09T20:33:50.278Z,12.29
2022-10-09T20:36:26.439Z,12.26
2022-10-09T20:38:56.799Z,12.24
2022-10-09T20:41:26.245Z,12.23
2022-10-09T20:43:57.008Z,12.23
2022-10-09T20:46:28.081Z,12.20
2022-10-09T20:48:56.813Z,12.19
2022-10-09T20:51:25.662Z,12.18
2022-10-09T20:53:56.105Z,12.13
2022-10-09T20:56:26.568Z,12.09
2022-10-09T20:58:55.861Z,12.08
2022-10-09T21:01:24.751Z,12.07
2022-10-09T21:03:52.711Z,12.05
2022-10-09T21:06:21.964Z,12.01
2022-10-09T21:08:50.514Z,11.96
2022-10-09T21:11:18.983Z,11.92
2022-10-09T21:13:48.175Z,11.88
2022-10-09T21:16:23.291Z,11.85
2022-10-09T21:19:01.012Z,11.83
2022-10-09T21:21:31.332Z,11.81
2022-10-09T21:24:00.664Z,11.79
2022-10-09T21:26:31.628Z,11.76
2022-10-09T21:29:00.225Z,11.73
2022-10-09T21:31:30.439Z,11.71
2022-10-09T21:34:01.119Z,11.69
2022-10-09T21:37:20.446Z,11.65
2022-10-09T21:39:43.176Z,11.58
2022-10-09T21:42:10.969Z,11.49
2022-10-09T21:44:38.809Z,11.42
2022-10-09T21:47:06.557Z,11.39
2022-10-09T21:49:34.402Z,11.37
2022-10-09T21:52:02.355Z,11.36
2022-10-09T21:54:30.135Z,11.36
2022-10-09T21:56:57.907Z,11.36
2022-10-09T21:59:25.786Z,11.35
2022-10-09T22:01:53.607Z,11.30
2022-10-09T22:04:21.978Z,11.24
2022-10-09T22:06:49.939Z,11.18
2022-10-09T22:09:17.767Z,11.13
2022-10-09T22:11:45.728Z,11.08
2022-10-09T22:14:13.633Z,11.05
2022-10-09T22:16:41.359Z,11.04
2022-10-09T22:19:09.106Z,11.02
2022-10-09T22:21:37.031Z,11.00
2022-10-09T22:24:04.911Z,10.97
2022-10-09T22:26:32.649Z,10.95
2022-10-09T22:29:00.380Z,10.93
2022-10-09T22:31:28.792Z,10.93
2022-10-09T22:33:59.625Z,10.93
2022-10-09T22:36:30.123Z,10.92
2022-10-09T22:39:00.441Z,10.91
2022-10-09T22:41:30.255Z,10.89
2022-10-09T22:43:59.684Z,10.86
2022-10-09T22:46:34.073Z,10.82
2022-10-09T22:49:02.356Z,10.77
2022-10-09T22:51:30.589Z,10.72
2022-10-09T22:53:59.776Z,10.67
2022-10-09T22:56:31.086Z,10.63
2022-10-09T22:58:59.189Z,10.59
2022-10-09T23:01:33.637Z,10.56
2022-10-09T23:04:07.056Z,10.53
2022-10-09T23:06:35.069Z,10.50
2022-10-09T23:09:05.474Z,10.46
2022-10-09T23:11:33.637Z,10.44
2022-10-09T23:14:01.941Z,10.42
2022-10-09T23:16:30.674Z,10.38
2022-10-09T23:19:05.430Z,10.35
2022-10-09T23:21:36.461Z,10.31
2022-10-09T23:24:05.650Z,10.27
2022-10-09T23:26:35.369Z,10.25
2022-10-09T23:29:09.485Z,10.24
2022-10-09T23:31:37.377Z,10.22
2022-10-09T23:34:07.698Z,10.21
2022-10-09T23:36:35.980Z,10.20
2022-10-09T23:39:06.119Z,10.18
2022-10-09T23:41:35.185Z,10.15
2022-10-09T23:44:03.684Z,10.10
2022-10-09T23:46:35.773Z,10.06
2022-10-09T23:49:04.698Z,10.01
2022-10-09T23:51:33.056Z,9.96
2022-10-09T23:54:01.003Z,9.92
2022-10-09T23:56:32.300Z,9.90
2022-10-09T23:59:02.704Z,9.87
